CheckWX is a tool to help pilots better visualize weather data.  It is not intended as a substitute for an official pre-flight weather briefing.

12:49:29 UTC

GMFK METAR
Moulay Ali Cherif Airport
Errachidia, Morocco
Current

49 mins ago

GMFK 181200Z 15006KT 110V190 CAVOK 10/M07 Q1023 NOSIG
Observed
Feb-18 @ 12:00 UTC
Wind
  • 150° at 6 KTS
Visibility
10,000+ meters
Flight Rules
VFR
Cloud Levels
  • Clear skies
Temperature
10°C / 50°F
Dewpoint
-7°C / 19°F
Humidity
30%
Altimeter
30.21" Hg
Pressure
1022.92 hPa
Previous

2 hours ago

GMFK 181100Z VRB02KT CAVOK 09/M06 Q1024 NOSIG
Observed
Feb-18 @ 11:00 UTC
Wind
  • Variable at 2 KTS
Visibility
10,000+ meters
Flight Rules
VFR
Cloud Levels
  • Clear skies
Temperature
C / 48°F
Dewpoint
-6°C / 21°F
Humidity
34%
Altimeter
30.24" Hg
Pressure
1023.92 hPa
Previous

3 hours ago

GMFK 181000Z 03003KT CAVOK 08/M07 Q1025 NOSIG
Observed
Feb-18 @ 10:00 UTC
Wind
  • 030° at 3 KTS
Visibility
10,000+ meters
Flight Rules
VFR
Cloud Levels
  • Clear skies
Temperature
C / 46°F
Dewpoint
-7°C / 19°F
Humidity
34%
Altimeter
30.27" Hg
Pressure
1024.92 hPa